Time;durP1;ratioP1;P1;durP2;ratioP2;P2;SDS_P1;SDS_P2;PMS_P1;PMS_P2;Temp;Humidity;BMP_temperature;BMP_pressure;BME280_temperature;BME280_humidity;BME280_pressure;Samples;Min_cycle;Max_cycle;Signal;HPM_P1;HPM_P2
2020/12/07 00:01:07;;;;;;;;;;;;;;;;;;4983975;28;20464;-61
2020/12/07 00:03:35;;;;;;;;;;;;;;;;;;4990769;28;19930;-67
2020/12/07 00:06:02;;;;;;;;;;;;;;;;;;4985074;28;20335;-65
2020/12/07 00:08:29;;;;;;;;;;;;;;;;;;4978376;28;20023;-62
2020/12/07 00:10:56;;;;;;;;;;;;;;;;;;4977358;28;19941;-62
2020/12/07 00:13:23;;;;;;;;;;;;;;;;;;4989021;28;20308;-62
2020/12/07 00:15:50;;;;;;;;;;;;;;;;;;4992739;28;19932;-63
2020/12/07 00:18:17;;;;;;;;;;;;;;;;;;4982380;28;19926;-62
2020/12/07 00:20:45;;;;;;;;;;;;;;;;;;4971005;28;19926;-63
2020/12/07 00:23:12;;;;;;;;;;;;;;;;;;4963163;28;19932;-62
2020/12/07 00:25:39;;;;;;;;;;;;;;;;;;4976774;28;19973;-62
2020/12/07 00:28:06;;;;;;;;;;;;;;;;;;4983752;28;20028;-67
2020/12/07 00:30:33;;;;;;;;;;;;;;;;;;4995082;28;20242;-63
2020/12/07 00:33:01;;;;;;;;;;;;;;;;;;4988291;28;19973;-73
2020/12/07 00:35:28;;;;;;;;;;;;;;;;;;4993642;28;20391;-65
2020/12/07 00:37:55;;;;;;;;;;;;;;;;;;4989167;28;19948;-62
2020/12/07 00:40:22;;;;;;;;;;;;;;;;;;4977150;28;19942;-63
2020/12/07 00:42:49;;;;;;;;;;;;;;;;;;4967855;28;19926;-64
2020/12/07 00:45:16;;;;;;;;;;;;;;;;;;4971328;28;20009;-62
2020/12/07 00:47:43;;;;;;;;;;;;;;;;;;4975114;28;19926;-62
2020/12/07 00:50:10;;;;;;;;;;;;;;;;;;4974430;28;20056;-64
2020/12/07 00:52:37;;;;;;;;;;;;;;;;;;4955952;29;19933;-62
2020/12/07 00:55:04;;;;;;;;;;;;;;;;;;4983712;28;20335;-66
2020/12/07 00:57:32;;;;;;;;;;;;;;;;;;4980913;28;19930;-67
2020/12/07 00:59:59;;;;;;;;;;;;;;;;;;4975754;28;19926;-65
2020/12/07 01:02:26;;;;;;;;;;;;;;;;;;4982789;28;19930;-62
2020/12/07 01:04:53;;;;;;;;;;;;;;;;;;4980273;28;20025;-63
2020/12/07 01:07:20;;;;;;;;;;;;;;;;;;4977543;28;19978;-62
2020/12/07 01:09:47;;;;;;;;;;;;;;;;;;4974872;28;19926;-63
2020/12/07 01:12:15;;;;;;;;;;;;;;;;;;4985897;28;19951;-62
2020/12/07 01:14:42;;;;;;;;;;;;;;;;;;4978483;28;19933;-62
2020/12/07 01:17:09;;;;;;;;;;;;;;;;;;4977908;28;20064;-62
2020/12/07 01:19:36;;;;;;;;;;;;;;;;;;4974716;28;19926;-62
2020/12/07 01:22:04;;;;;;;;;;;;;;;;;;4981035;28;20278;-62
2020/12/07 01:24:31;;;;;;;;;;;;;;;;;;4985040;28;19933;-62
2020/12/07 01:26:58;;;;;;;;;;;;;;;;;;4978618;28;20409;-62
2020/12/07 01:29:26;;;;;;;;;;;;;;;;;;4973712;28;20032;-62
2020/12/07 01:31:53;;;;;;;;;;;;;;;;;;4987006;28;20301;-62
2020/12/07 01:34:20;;;;;;;;;;;;;;;;;;4973571;28;19926;-62
2020/12/07 01:36:47;;;;;;;;;;;;;;;;;;4982394;28;20372;-69
2020/12/07 01:39:14;;;;;;;;;;;;;;;;;;4974025;28;20024;-62
2020/12/07 01:41:41;;;;;;;;;;;;;;;;;;4985015;28;19936;-62
2020/12/07 01:44:08;;;;;;;;;;;;;;;;;;4992476;28;19961;-62
2020/12/07 01:46:36;;;;;;;;;;;;;;;;;;4975869;28;20809;-62
2020/12/07 01:49:03;;;;;;;;;;;;;;;;;;4985236;28;19927;-64
2020/12/07 01:51:30;;;;;;;;;;;;;;;;;;4974387;28;20429;-66
2020/12/07 01:53:57;;;;;;;;;;;;;;;;;;4981677;28;19960;-62
2020/12/07 01:56:24;;;;;;;;;;;;;;;;;;4973203;28;20009;-62
2020/12/07 01:58:51;;;;;;;;;;;;;;;;;;4978818;28;20031;-63
2020/12/07 02:01:18;;;;;;;;;;;;;;;;;;4981422;28;19969;-67
2020/12/07 02:27:08;;;;;;;;;;;;;;;;;;4968227;28;20032;-91
2020/12/07 02:41:20;;;;;;;;;;;;;;;;;;4973335;28;20345;-91
2020/12/07 03:06:35;;;;;;;;;;;;;;;;;;4975684;28;19980;-92
2020/12/07 03:14:58;;;;;;;;;;;;;;;;;;4974865;28;19926;-91
2020/12/07 03:20:37;;;;;;;;;;;;;;;;;;4975599;28;19934;-91
2020/12/07 03:23:08;;;;;;;;;;;;;;;;;;4975787;28;20021;-91
2020/12/07 03:25:36;;;;;;;;;;;;;;;;;;4975286;28;20029;-91
2020/12/07 03:31:00;;;;;;;;;;;;;;;;;;4975107;28;19926;-90
2020/12/07 03:33:45;;;;;;;;;;;;;;;;;;4975925;28;19930;-91
2020/12/07 03:39:08;;;;;;;;;;;;;;;;;;4979421;28;20001;-91
2020/12/07 03:41:50;;;;;;;;;;;;;;;;;;4980590;28;19926;-91
2020/12/07 03:44:25;;;;;;;;;;;;;;;;;;4961795;28;19933;-91
2020/12/07 03:46:52;;;;;;;;;;;;;;;;;;4966579;28;20353;-91
2020/12/07 03:49:21;;;;;;;;;;;;;;;;;;4979137;28;20441;-90
2020/12/07 03:51:50;;;;;;;;;;;;;;;;;;4989044;28;19930;-90
2020/12/07 03:54:20;;;;;;;;;;;;;;;;;;4996414;28;19932;-91
2020/12/07 03:57:02;;;;;;;;;;;;;;;;;;4978890;28;19926;-91
2020/12/07 04:10:53;;;;;;;;;;;;;;;;;;4977845;28;20282;-91
2020/12/07 04:16:07;;;;;;;;;;;;;;;;;;4982674;28;19976;-92
2020/12/07 04:18:52;;;;;;;;;;;;;;;;;;4961200;28;19934;-91
2020/12/07 04:21:21;;;;;;;;;;;;;;;;;;4978597;28;19973;-91
2020/12/07 04:32:29;;;;;;;;;;;;;;;;;;4976631;28;20034;-90
2020/12/07 04:34:57;;;;;;;;;;;;;;;;;;4978061;28;20009;-91
2020/12/07 04:37:39;;;;;;;;;;;;;;;;;;4978230;28;19933;-91
2020/12/07 04:40:11;;;;;;;;;;;;;;;;;;4978133;28;20302;-90
2020/12/07 04:42:45;;;;;;;;;;;;;;;;;;4967621;28;20049;-91
2020/12/07 04:45:13;;;;;;;;;;;;;;;;;;4976929;28;19981;-91
2020/12/07 04:47:55;;;;;;;;;;;;;;;;;;4978982;28;19942;-91
2020/12/07 04:56:14;;;;;;;;;;;;;;;;;;4975143;28;19973;-91
2020/12/07 05:01:38;;;;;;;;;;;;;;;;;;4978086;28;20037;-91
2020/12/07 05:04:13;;;;;;;;;;;;;;;;;;4978266;28;19933;-91
2020/12/07 05:12:22;;;;;;;;;;;;;;;;;;4975896;28;19926;-91
2020/12/07 05:15:05;;;;;;;;;;;;;;;;;;4952364;29;19978;-91
2020/12/07 05:22:59;;;;;;;;;;;;;;;;;;4973503;28;19932;-91
2020/12/07 05:33:35;;;;;;;;;;;;;;;;;;4975818;28;19928;-91
2020/12/07 05:36:16;;;;;;;;;;;;;;;;;;4971804;28;19974;-91
2020/12/07 05:47:18;;;;;;;;;;;;;;;;;;4935830;29;20019;-91
2020/12/07 05:49:49;;;;;;;;;;;;;;;;;;4936014;29;19930;-92
2020/12/07 05:52:16;;;;;;;;;;;;;;;;;;4933603;29;19978;-91
2020/12/07 05:54:47;;;;;;;;;;;;;;;;;;4905457;29;19969;-90
2020/12/07 05:57:17;;;;;;;;;;;;;;;;;;4923485;29;19926;-90
2020/12/07 05:59:46;;;;;;;;;;;;;;;;;;4936436;29;20017;-92
2020/12/07 06:02:13;;;;;;;;;;;;;;;;;;4921404;29;19927;-92
2020/12/07 06:04:40;;;;;;;;;;;;;;;;;;4929870;29;20382;-89
2020/12/07 06:07:26;;;;;;;;;;;;;;;;;;4438761;29;9999977;-91
2020/12/07 06:09:53;;;;;;;;;;;;;;;;;;1358441;29;10001876;-90
2020/12/07 06:12:21;;;;;;;;;;;;;;;;;;4974626;28;19933;-90
2020/12/07 06:14:48;;;;;;;;;;;;;;;;;;4976059;28;19986;-90
2020/12/07 06:17:19;;;;;;;;;;;;;;;;;;4974632;28;20364;-91
2020/12/07 06:19:46;;;;;;;;;;;;;;;;;;4975495;28;19926;-91
2020/12/07 06:22:13;;;;;;;;;;;;;;;;;;4975732;28;20366;-91
2020/12/07 06:24:42;;;;;;;;;;;;;;;;;;4973928;28;19934;-91
2020/12/07 06:27:10;;;;;;;;;;;;;;;;;;4973124;28;19950;-91
2020/12/07 06:29:39;;;;;;;;;;;;;;;;;;4974116;28;20386;-91
2020/12/07 06:32:06;;;;;;;;;;;;;;;;;;4974907;28;19930;-91
2020/12/07 06:34:33;;;;;;;;;;;;;;;;;;4975340;28;19973;-91
2020/12/07 06:37:00;;;;;;;;;;;;;;;;;;4974714;28;19972;-91
2020/12/07 06:39:28;;;;;;;;;;;;;;;;;;4976103;28;20017;-91
2020/12/07 06:41:58;;;;;;;;;;;;;;;;;;4977097;28;19934;-91
2020/12/07 06:44:25;;;;;;;;;;;;;;;;;;4958260;28;19952;-91
2020/12/07 06:46:55;;;;;;;;;;;;;;;;;;4976153;28;19933;-91
2020/12/07 06:49:22;;;;;;;;;;;;;;;;;;4975592;28;20387;-91
2020/12/07 06:51:50;;;;;;;;;;;;;;;;;;4976006;28;19926;-91
2020/12/07 06:56:58;;;;;;;;;;;;;;;;;;4975279;28;19931;-91
2020/12/07 06:59:28;;;;;;;;;;;;;;;;;;4976045;28;19930;-91
2020/12/07 07:01:56;;;;;;;;;;;;;;;;;;4976329;28;19936;-91
2020/12/07 07:04:23;;;;;;;;;;;;;;;;;;4975192;28;20013;-91
2020/12/07 07:06:50;;;;;;;;;;;;;;;;;;4975208;28;19926;-91
2020/12/07 07:09:17;;;;;;;;;;;;;;;;;;4979642;28;19972;-91
2020/12/07 07:11:45;;;;;;;;;;;;;;;;;;4997669;28;20183;-91
2020/12/07 07:14:12;;;;;;;;;;;;;;;;;;4986111;28;19989;-91
2020/12/07 07:16:39;;;;;;;;;;;;;;;;;;4979823;28;20439;-91
2020/12/07 07:19:07;;;;;;;;;;;;;;;;;;4973847;28;20018;-90
2020/12/07 07:21:35;;;;;;;;;;;;;;;;;;4964613;28;19946;-89
2020/12/07 07:24:02;;;;;;;;;;;;;;;;;;4979872;28;19961;-90
2020/12/07 07:26:44;;;;;;;;;;;;;;;;;;4961850;28;20444;-88
2020/12/07 07:29:11;;;;;;;;;;;;;;;;;;4978891;28;19957;-90
2020/12/07 07:31:38;;;;;;;;;;;;;;;;;;4977459;28;20397;-91
2020/12/07 07:34:05;;;;;;;;;;;;;;;;;;4978806;28;19972;-91
2020/12/07 07:36:35;;;;;;;;;;;;;;;;;;4977440;28;20552;-91
2020/12/07 07:39:03;;;;;;;;;;;;;;;;;;4968098;28;19932;-90
2020/12/07 07:41:33;;;;;;;;;;;;;;;;;;4973205;28;19929;-92
2020/12/07 07:44:01;;;;;;;;;;;;;;;;;;4971644;28;19983;-91
2020/12/07 07:46:32;;;;;;;;;;;;;;;;;;4963244;28;20339;-92
2020/12/07 07:49:13;;;;;;;;;;;;;;;;;;4977475;28;19926;-90
2020/12/07 07:57:40;;;;;;;;;;;;;;;;;;4921083;28;19968;-90
2020/12/07 08:06:01;;;;;;;;;;;;;;;;;;4942625;28;20465;-90
2020/12/07 08:07:20;;;;;;;;;;;;;;;;;;4962694;28;20043;-89
2020/12/07 08:15:22;;;;;;;;;;;;;;;;;;4977349;28;19926;-90
2020/12/07 08:17:49;;;;;;;;;;;;;;;;;;4974211;28;19926;-92
2020/12/07 08:20:17;;;;;;;;;;;;;;;;;;4978849;28;19941;-92
2020/12/07 08:22:45;;;;;;;;;;;;;;;;;;4980097;28;19930;-91
2020/12/07 08:25:19;;;;;;;;;;;;;;;;;;4979921;28;20294;-93
2020/12/07 08:27:47;;;;;;;;;;;;;;;;;;4979354;28;20286;-93
2020/12/07 08:30:21;;;;;;;;;;;;;;;;;;4980298;28;19926;-93
2020/12/07 08:55:42;;;;;;;;;;;;;;;;;;4978913;28;20005;-91
2020/12/07 08:58:09;;;;;;;;;;;;;;;;;;4979980;28;20374;-93
2020/12/07 09:00:43;;;;;;;;;;;;;;;;;;4946479;28;20018;-92
2020/12/07 09:06:25;;;;;;;;;;;;;;;;;;5156508;23;19937;-62
2020/12/07 09:08:53;;;;;;;;;;;;;;;;;;4974064;28;19930;-62
2020/12/07 09:11:20;;;;;;;;;;;;;;;;;;4976060;28;19925;-62
2020/12/07 09:13:48;;;;;;;;;;;;;;;;;;4974274;28;19934;-62
2020/12/07 09:16:15;;;;;;;;;;;;;;;;;;4972382;28;20286;-62
2020/12/07 09:18:42;;;;;;;;;;;;;;;;;;4973855;28;20005;-62
2020/12/07 09:21:09;;;;;;;;;;;;;;;;;;4979802;28;20333;-62
2020/12/07 09:23:37;;;;;;;;;;;;;;;;;;4993339;28;19973;-62
2020/12/07 09:26:04;;;;;;;;;;;;;;;;;;4982527;28;20017;-62
2020/12/07 09:28:32;;;;;;;;;;;;;;;;;;4973584;28;20474;-62
2020/12/07 09:30:59;;;;;;;;;;;;;;;;;;4973536;28;19930;-62
2020/12/07 09:33:26;;;;;;;;;;;;;;;;;;4965970;28;20294;-62
2020/12/07 09:35:54;;;;;;;;;;;;;;;;;;4961855;28;19931;-62
2020/12/07 09:38:21;;;;;;;;;;;;;;;;;;4963091;28;19998;-62
2020/12/07 09:40:48;;;;;;;;;;;;;;;;;;4964607;28;20012;-62
2020/12/07 09:43:16;;;;;;;;;;;;;;;;;;4975005;28;20381;-62
2020/12/07 09:45:44;;;;;;;;;;;;;;;;;;4976376;28;19930;-62
2020/12/07 09:48:11;;;;;;;;;;;;;;;;;;4972711;28;20350;-62
2020/12/07 09:50:40;;;;;;;;;;;;;;;;;;4963241;28;20453;-62
2020/12/07 09:53:11;;;;;;;;;;;;;;;;;;4962611;28;19937;-62
2020/12/07 09:55:38;;;;;;;;;;;;;;;;;;4969181;28;19929;-62
2020/12/07 09:58:06;;;;;;;;;;;;;;;;;;4972484;28;20426;-62
2020/12/07 10:00:33;;;;;;;;;;;;;;;;;;4969582;28;19939;-62
2020/12/07 10:03:00;;;;;;;;;;;;;;;;;;4989967;28;19969;-62
2020/12/07 10:05:27;;;;;;;;;;;;;;;;;;4975730;28;19973;-62
2020/12/07 10:07:55;;;;;;;;;;;;;;;;;;4972775;28;20321;-62
2020/12/07 10:10:22;;;;;;;;;;;;;;;;;;4972759;28;19977;-62
2020/12/07 10:12:50;;;;;;;;;;;;;;;;;;4972108;28;19934;-62
2020/12/07 10:15:17;;;;;;;;;;;;;;;;;;4972090;28;20405;-62
2020/12/07 10:17:44;;;;;;;;;;;;;;;;;;4972915;28;19981;-62
2020/12/07 10:20:12;;;;;;;;;;;;;;;;;;4966458;28;19930;-62
2020/12/07 10:22:40;;;;;;;;;;;;;;;;;;4972764;28;19968;-62
2020/12/07 10:25:07;;;;;;;;;;;;;;;;;;4971243;28;20398;-62
2020/12/07 10:27:35;;;;;;;;;;;;;;;;;;4972867;28;19926;-62
2020/12/07 10:30:02;;;;;;;;;;;;;;;;;;4972053;28;19934;-62
2020/12/07 10:32:29;;;;;;;;;;;;;;;;;;4971343;28;19926;-62
2020/12/07 10:34:57;;;;;;;;;;;;;;;;;;4971924;28;20295;-62
2020/12/07 10:37:24;;;;;;;;;;;;;;;;;;4962093;28;19930;-62
2020/12/07 10:39:51;;;;;;;;;;;;;;;;;;4972958;28;19958;-62
2020/12/07 10:42:18;;;;;;;;;;;;;;;;;;4971909;28;19926;-62
2020/12/07 10:44:46;;;;;;;;;;;;;;;;;;4970647;28;19930;-62
2020/12/07 10:47:13;;;;;;;;;;;;;;;;;;4972401;28;20045;-62
2020/12/07 10:49:40;;;;;;;;;;;;;;;;;;4972720;28;19930;-62
2020/12/07 10:52:08;;;;;;;;;;;;;;;;;;4972653;28;20049;-62
2020/12/07 10:54:35;;;;;;;;;;;;;;;;;;4970046;28;19930;-62
2020/12/07 10:57:02;;;;;;;;;;;;;;;;;;4971043;28;19965;-62
2020/12/07 10:59:29;;;;;;;;;;;;;;;;;;4970631;28;19961;-62
2020/12/07 11:01:57;;;;;;;;;;;;;;;;;;4966883;28;20020;-62
2020/12/07 11:04:24;;;;;;;;;;;;;;;;;;4971961;28;19985;-62
2020/12/07 11:06:53;;;;;;;;;;;;;;;;;;4972254;28;20017;-62
2020/12/07 11:09:24;;;;;;;;;;;;;;;;;;4971933;28;19932;-62
2020/12/07 11:11:57;;;;;;;;;;;;;;;;;;4972468;28;19971;-62
2020/12/07 11:14:24;;;;;;;;;;;;;;;;;;4970889;28;19930;-62
2020/12/07 11:16:52;;;;;;;;;;;;;;;;;;4972184;28;19930;-62
2020/12/07 11:19:19;;;;;;;;;;;;;;;;;;4967060;28;19958;-62
2020/12/07 11:21:46;;;;;;;;;;;;;;;;;;4972465;28;20462;-62
2020/12/07 11:24:14;;;;;;;;;;;;;;;;;;4968824;28;19981;-62
2020/12/07 11:26:41;;;;;;;;;;;;;;;;;;4972248;28;20391;-62
2020/12/07 11:29:08;;;;;;;;;;;;;;;;;;4971376;28;19949;-62
2020/12/07 11:31:36;;;;;;;;;;;;;;;;;;4971362;28;20349;-62
2020/12/07 11:34:03;;;;;;;;;;;;;;;;;;4972121;28;19926;-62
2020/12/07 11:36:30;;;;;;;;;;;;;;;;;;4971851;28;19961;-62
2020/12/07 11:39:10;;;;;;;;;;;;;;;;;;4971967;28;19981;-62
2020/12/07 11:41:56;;;;;;;;;;;;;;;;;;4972298;28;19926;-62
2020/12/07 11:44:23;;;;;;;;;;;;;;;;;;4971220;28;19926;-62
2020/12/07 11:46:54;;;;;;;;;;;;;;;;;;4970973;28;20353;-62
2020/12/07 11:49:21;;;;;;;;;;;;;;;;;;4972088;28;19926;-62
2020/12/07 11:51:49;;;;;;;;;;;;;;;;;;4972477;28;19934;-62
2020/12/07 11:54:16;;;;;;;;;;;;;;;;;;4971877;28;19981;-62
2020/12/07 11:56:43;;;;;;;;;;;;;;;;;;4972770;28;19974;-62
2020/12/07 11:59:10;;;;;;;;;;;;;;;;;;4975007;28;19930;-62
2020/12/07 12:01:38;;;;;;;;;;;;;;;;;;4975639;28;19930;-62
2020/12/07 12:04:05;;;;;;;;;;;;;;;;;;4975543;28;20444;-62
2020/12/07 12:06:34;;;;;;;;;;;;;;;;;;4974712;28;20835;-62
2020/12/07 12:09:01;;;;;;;;;;;;;;;;;;4975906;28;19926;-62
2020/12/07 12:11:29;;;;;;;;;;;;;;;;;;4975894;28;19926;-62
2020/12/07 12:13:56;;;;;;;;;;;;;;;;;;4975223;28;20397;-62
2020/12/07 12:16:24;;;;;;;;;;;;;;;;;;4974852;28;20020;-62
2020/12/07 12:19:00;;;;;;;;;;;;;;;;;;4974134;28;19930;-62
2020/12/07 12:21:29;;;;;;;;;;;;;;;;;;4974734;28;20346;-62
2020/12/07 12:23:56;;;;;;;;;;;;;;;;;;4975726;28;19930;-63
2020/12/07 12:26:23;;;;;;;;;;;;;;;;;;4974576;28;19927;-62
2020/12/07 12:28:51;;;;;;;;;;;;;;;;;;4975097;28;19956;-62
2020/12/07 12:31:18;;;;;;;;;;;;;;;;;;4974207;28;19953;-62
2020/12/07 12:33:45;;;;;;;;;;;;;;;;;;4974636;28;20282;-63
2020/12/07 12:36:13;;;;;;;;;;;;;;;;;;4974682;28;20382;-62
2020/12/07 12:38:40;;;;;;;;;;;;;;;;;;4970405;28;19926;-62
2020/12/07 12:41:08;;;;;;;;;;;;;;;;;;4973580;28;19927;-62
2020/12/07 12:43:35;;;;;;;;;;;;;;;;;;4977411;28;19926;-62
2020/12/07 12:46:03;;;;;;;;;;;;;;;;;;4974702;28;20410;-62
2020/12/07 12:48:30;;;;;;;;;;;;;;;;;;4974990;28;20386;-63
2020/12/07 12:50:58;;;;;;;;;;;;;;;;;;4974478;28;19973;-62
2020/12/07 12:53:25;;;;;;;;;;;;;;;;;;4974509;28;20077;-62
2020/12/07 12:55:53;;;;;;;;;;;;;;;;;;4972961;28;20428;-63
2020/12/07 12:58:20;;;;;;;;;;;;;;;;;;4973568;28;19930;-62
2020/12/07 13:00:48;;;;;;;;;;;;;;;;;;4973250;28;19930;-62
2020/12/07 13:03:16;;;;;;;;;;;;;;;;;;4973772;28;20021;-62
2020/12/07 13:05:44;;;;;;;;;;;;;;;;;;4972595;28;20305;-62
2020/12/07 13:08:11;;;;;;;;;;;;;;;;;;4974087;28;19976;-61
2020/12/07 13:10:39;;;;;;;;;;;;;;;;;;4961971;28;19934;-62
2020/12/07 13:13:07;;;;;;;;;;;;;;;;;;4973103;28;19973;-62
2020/12/07 13:15:38;;;;;;;;;;;;;;;;;;4985290;28;19960;-62
2020/12/07 13:18:08;;;;;;;;;;;;;;;;;;4977235;28;19973;-62
2020/12/07 13:20:39;;;;;;;;;;;;;;;;;;4969046;28;19937;-62
2020/12/07 13:23:14;;;;;;;;;;;;;;;;;;4974806;28;19926;-62
2020/12/07 13:25:48;;;;;;;;;;;;;;;;;;4973302;28;20287;-62
2020/12/07 13:28:15;;;;;;;;;;;;;;;;;;4973058;28;19930;-62
2020/12/07 13:30:43;;;;;;;;;;;;;;;;;;4970975;28;19930;-64
2020/12/07 13:33:11;;;;;;;;;;;;;;;;;;4973123;28;20390;-63
2020/12/07 13:35:38;;;;;;;;;;;;;;;;;;4973201;28;19933;-63
2020/12/07 13:38:06;;;;;;;;;;;;;;;;;;4973101;28;20392;-63
2020/12/07 13:40:34;;;;;;;;;;;;;;;;;;4973693;28;20386;-63
2020/12/07 13:43:01;;;;;;;;;;;;;;;;;;4973545;28;19933;-63
2020/12/07 13:45:28;;;;;;;;;;;;;;;;;;4972437;28;19930;-63
2020/12/07 13:47:56;;;;;;;;;;;;;;;;;;4973159;28;19980;-63
2020/12/07 13:50:23;;;;;;;;;;;;;;;;;;4972613;28;20028;-63
2020/12/07 13:52:51;;;;;;;;;;;;;;;;;;4974193;28;19926;-63
2020/12/07 13:55:19;;;;;;;;;;;;;;;;;;4972860;28;20383;-63
2020/12/07 13:57:46;;;;;;;;;;;;;;;;;;4972728;28;19933;-63
2020/12/07 14:00:14;;;;;;;;;;;;;;;;;;4974187;28;19930;-63
2020/12/07 14:02:41;;;;;;;;;;;;;;;;;;4972403;28;19930;-63
2020/12/07 14:05:09;;;;;;;;;;;;;;;;;;4973058;28;19926;-63
2020/12/07 14:07:37;;;;;;;;;;;;;;;;;;4972641;28;19926;-63
2020/12/07 14:10:04;;;;;;;;;;;;;;;;;;4973381;28;19930;-63
2020/12/07 14:12:32;;;;;;;;;;;;;;;;;;4973657;28;19981;-63
2020/12/07 14:15:01;;;;;;;;;;;;;;;;;;4972587;28;20016;-63
2020/12/07 14:17:30;;;;;;;;;;;;;;;;;;4974138;28;19926;-63
2020/12/07 14:20:04;;;;;;;;;;;;;;;;;;4972175;28;20009;-63
2020/12/07 14:22:54;;;;;;;;;;;;;;;;;;4972866;28;19937;-63
2020/12/07 14:25:44;;;;;;;;;;;;;;;;;;4972183;28;19937;-63
2020/12/07 14:28:36;;;;;;;;;;;;;;;;;;4970372;28;19926;-63
2020/12/07 14:42:07;;;;;;;;;;;;;;;;;;4962907;28;19930;-63
2020/12/07 14:44:38;;;;;;;;;;;;;;;;;;4968884;28;19937;-63
2020/12/07 14:47:06;;;;;;;;;;;;;;;;;;4967662;28;20294;-63
2020/12/07 14:49:37;;;;;;;;;;;;;;;;;;4969423;28;20029;-63
2020/12/07 14:52:07;;;;;;;;;;;;;;;;;;4968617;28;20024;-63
2020/12/07 14:54:38;;;;;;;;;;;;;;;;;;4968162;28;19930;-63
2020/12/07 14:57:18;;;;;;;;;;;;;;;;;;4967443;28;20398;-63
2020/12/07 15:03:06;;;;;;;;;;;;;;;;;;4968139;28;19926;-63
2020/12/07 15:05:34;;;;;;;;;;;;;;;;;;4967864;28;19977;-63
2020/12/07 15:16:14;;;;;;;;;;;;;;;;;;4965615;28;19984;-63
2020/12/07 15:18:42;;;;;;;;;;;;;;;;;;4966458;28;20399;-63
2020/12/07 15:21:09;;;;;;;;;;;;;;;;;;4965531;28;19997;-63
2020/12/07 15:23:36;;;;;;;;;;;;;;;;;;4969172;28;19930;-63
2020/12/07 15:26:04;;;;;;;;;;;;;;;;;;4968236;28;19934;-63
2020/12/07 15:28:31;;;;;;;;;;;;;;;;;;4969011;28;19930;-63
2020/12/07 15:30:58;;;;;;;;;;;;;;;;;;4976335;28;19930;-63
2020/12/07 15:33:25;;;;;;;;;;;;;;;;;;4990435;28;19930;-63
2020/12/07 15:35:55;;;;;;;;;;;;;;;;;;4984667;28;19930;-63
2020/12/07 15:38:23;;;;;;;;;;;;;;;;;;4969148;28;20191;-63
2020/12/07 15:40:50;;;;;;;;;;;;;;;;;;4960942;28;20408;-63
2020/12/07 15:43:17;;;;;;;;;;;;;;;;;;4971626;28;20062;-63
2020/12/07 15:45:44;;;;;;;;;;;;;;;;;;4971434;28;20402;-63
2020/12/07 15:48:13;;;;;;;;;;;;;;;;;;4972125;28;19934;-63
2020/12/07 15:50:40;;;;;;;;;;;;;;;;;;4968804;28;19930;-62
2020/12/07 15:53:08;;;;;;;;;;;;;;;;;;4972489;28;20404;-62
2020/12/07 15:55:35;;;;;;;;;;;;;;;;;;4974795;28;19926;-62
2020/12/07 15:58:02;;;;;;;;;;;;;;;;;;4973044;28;19930;-62
2020/12/07 16:00:30;;;;;;;;;;;;;;;;;;4970157;28;20079;-62
2020/12/07 16:03:02;;;;;;;;;;;;;;;;;;4973010;28;20321;-62
2020/12/07 16:05:29;;;;;;;;;;;;;;;;;;4971484;28;19974;-62
2020/12/07 16:07:57;;;;;;;;;;;;;;;;;;4975311;28;19930;-62
2020/12/07 16:10:25;;;;;;;;;;;;;;;;;;4974151;28;20290;-62
2020/12/07 16:12:52;;;;;;;;;;;;;;;;;;4969006;28;20025;-62
2020/12/07 16:15:20;;;;;;;;;;;;;;;;;;4979005;28;20001;-62
2020/12/07 16:17:47;;;;;;;;;;;;;;;;;;4972402;28;19926;-62
2020/12/07 16:20:15;;;;;;;;;;;;;;;;;;4970256;28;19926;-62
2020/12/07 16:22:42;;;;;;;;;;;;;;;;;;4973456;28;19926;-62
2020/12/07 16:25:10;;;;;;;;;;;;;;;;;;4971342;28;19937;-62
2020/12/07 16:27:37;;;;;;;;;;;;;;;;;;4973206;28;20391;-62
2020/12/07 16:30:05;;;;;;;;;;;;;;;;;;4975070;28;20013;-62
2020/12/07 16:32:32;;;;;;;;;;;;;;;;;;4974391;28;19933;-62
2020/12/07 16:35:00;;;;;;;;;;;;;;;;;;4976032;28;19936;-62
2020/12/07 16:37:27;;;;;;;;;;;;;;;;;;4980844;28;19926;-62
2020/12/07 16:39:55;;;;;;;;;;;;;;;;;;4981687;28;19936;-62
2020/12/07 16:42:22;;;;;;;;;;;;;;;;;;4975489;28;20386;-62
2020/12/07 16:44:49;;;;;;;;;;;;;;;;;;4974708;28;19926;-62
2020/12/07 16:47:17;;;;;;;;;;;;;;;;;;4975661;28;20000;-62
2020/12/07 16:49:46;;;;;;;;;;;;;;;;;;4975389;28;19990;-62
2020/12/07 16:52:14;;;;;;;;;;;;;;;;;;4973926;28;19934;-62
2020/12/07 16:54:41;;;;;;;;;;;;;;;;;;4973733;28;19937;-62
2020/12/07 16:57:09;;;;;;;;;;;;;;;;;;4974495;28;19930;-62
2020/12/07 16:59:36;;;;;;;;;;;;;;;;;;4978142;28;19926;-62
2020/12/07 17:02:04;;;;;;;;;;;;;;;;;;4976724;28;19940;-62
2020/12/07 17:04:31;;;;;;;;;;;;;;;;;;4972841;28;19937;-62
2020/12/07 17:06:59;;;;;;;;;;;;;;;;;;4969448;28;19930;-62
2020/12/07 17:09:27;;;;;;;;;;;;;;;;;;4969412;28;19940;-62
2020/12/07 17:11:55;;;;;;;;;;;;;;;;;;4976080;28;19934;-62
2020/12/07 17:14:23;;;;;;;;;;;;;;;;;;4970610;28;19933;-62
2020/12/07 17:16:50;;;;;;;;;;;;;;;;;;4965437;28;19986;-62
2020/12/07 17:19:18;;;;;;;;;;;;;;;;;;4970589;28;19934;-63
2020/12/07 17:21:45;;;;;;;;;;;;;;;;;;4989213;28;19999;-62
2020/12/07 17:24:12;;;;;;;;;;;;;;;;;;4987897;28;19929;-62
2020/12/07 17:26:40;;;;;;;;;;;;;;;;;;4974324;28;20007;-62
2020/12/07 17:29:08;;;;;;;;;;;;;;;;;;4979060;28;19965;-62
2020/12/07 17:31:35;;;;;;;;;;;;;;;;;;4984009;28;20053;-62
2020/12/07 17:34:03;;;;;;;;;;;;;;;;;;4985958;28;19933;-62
2020/12/07 17:36:30;;;;;;;;;;;;;;;;;;4989168;28;19937;-62
2020/12/07 17:38:57;;;;;;;;;;;;;;;;;;4974706;28;19976;-62
2020/12/07 17:41:25;;;;;;;;;;;;;;;;;;4970091;28;19930;-62
2020/12/07 17:43:52;;;;;;;;;;;;;;;;;;4974238;28;19936;-62
2020/12/07 17:46:20;;;;;;;;;;;;;;;;;;4983939;28;20017;-62
2020/12/07 17:48:48;;;;;;;;;;;;;;;;;;4987174;28;19936;-63
2020/12/07 17:51:15;;;;;;;;;;;;;;;;;;4983123;28;19930;-62
2020/12/07 17:53:44;;;;;;;;;;;;;;;;;;4989886;28;20193;-62
2020/12/07 17:56:12;;;;;;;;;;;;;;;;;;4988467;28;19930;-62
2020/12/07 17:58:39;;;;;;;;;;;;;;;;;;4982228;28;20267;-62
2020/12/07 18:01:07;;;;;;;;;;;;;;;;;;4974924;28;19934;-62
2020/12/07 18:03:37;;;;;;;;;;;;;;;;;;4981275;28;19930;-62
2020/12/07 18:06:04;;;;;;;;;;;;;;;;;;4982874;28;20446;-63
2020/12/07 18:08:32;;;;;;;;;;;;;;;;;;4973855;28;20438;-63
2020/12/07 18:11:00;;;;;;;;;;;;;;;;;;4983723;28;19936;-63
2020/12/07 18:13:28;;;;;;;;;;;;;;;;;;4968722;28;19980;-63
2020/12/07 18:15:55;;;;;;;;;;;;;;;;;;4967694;28;20282;-62
2020/12/07 18:18:23;;;;;;;;;;;;;;;;;;4969900;28;19926;-62
2020/12/07 18:20:50;;;;;;;;;;;;;;;;;;4966942;28;20025;-62
2020/12/07 18:23:18;;;;;;;;;;;;;;;;;;4957567;28;19989;-63
2020/12/07 18:25:45;;;;;;;;;;;;;;;;;;4968241;28;20036;-63
2020/12/07 18:28:22;;;;;;;;;;;;;;;;;;4968522;28;20382;-63
2020/12/07 18:30:49;;;;;;;;;;;;;;;;;;4967492;28;20065;-62
2020/12/07 18:33:17;;;;;;;;;;;;;;;;;;4968650;28;19957;-63
2020/12/07 18:35:45;;;;;;;;;;;;;;;;;;4968769;28;19957;-63
2020/12/07 18:38:12;;;;;;;;;;;;;;;;;;4972156;28;19984;-63
2020/12/07 18:40:40;;;;;;;;;;;;;;;;;;4955229;28;20016;-62
2020/12/07 18:43:07;;;;;;;;;;;;;;;;;;4966471;28;19938;-63
2020/12/07 18:45:35;;;;;;;;;;;;;;;;;;4962715;28;19931;-63
2020/12/07 18:48:02;;;;;;;;;;;;;;;;;;4961056;28;20336;-63
2020/12/07 18:50:30;;;;;;;;;;;;;;;;;;4969139;28;19976;-63
2020/12/07 18:52:58;;;;;;;;;;;;;;;;;;4969609;28;19930;-63
2020/12/07 18:55:26;;;;;;;;;;;;;;;;;;4973254;28;19952;-63
2020/12/07 18:57:54;;;;;;;;;;;;;;;;;;4968837;28;19930;-63
2020/12/07 19:00:21;;;;;;;;;;;;;;;;;;4968221;28;19985;-63
2020/12/07 19:02:48;;;;;;;;;;;;;;;;;;4968725;28;20022;-66
2020/12/07 19:05:16;;;;;;;;;;;;;;;;;;4966989;28;20388;-62
2020/12/07 19:07:44;;;;;;;;;;;;;;;;;;4969921;28;20708;-62
2020/12/07 19:10:11;;;;;;;;;;;;;;;;;;4966323;28;19953;-62
2020/12/07 19:12:39;;;;;;;;;;;;;;;;;;4970046;28;19937;-62
2020/12/07 19:15:07;;;;;;;;;;;;;;;;;;4967986;28;19957;-62
2020/12/07 19:17:34;;;;;;;;;;;;;;;;;;4963810;28;20024;-62
2020/12/07 19:20:02;;;;;;;;;;;;;;;;;;4962087;28;19936;-62
2020/12/07 19:22:30;;;;;;;;;;;;;;;;;;4975657;28;19937;-62
2020/12/07 19:25:13;;;;;;;;;;;;;;;;;;4965909;28;19957;-62
2020/12/07 19:27:41;;;;;;;;;;;;;;;;;;4972125;28;19930;-62
2020/12/07 19:30:08;;;;;;;;;;;;;;;;;;4967503;28;19930;-62
2020/12/07 19:32:36;;;;;;;;;;;;;;;;;;4970696;28;20294;-62
2020/12/07 19:35:04;;;;;;;;;;;;;;;;;;4969609;28;19934;-62
2020/12/07 19:37:31;;;;;;;;;;;;;;;;;;4971181;28;20472;-62
2020/12/07 19:39:59;;;;;;;;;;;;;;;;;;4970620;28;19977;-60
2020/12/07 19:42:27;;;;;;;;;;;;;;;;;;4969350;28;19930;-61
2020/12/07 19:44:55;;;;;;;;;;;;;;;;;;4972600;28;19930;-61
2020/12/07 19:47:23;;;;;;;;;;;;;;;;;;4960629;28;20442;-60
2020/12/07 19:49:50;;;;;;;;;;;;;;;;;;4953804;29;19959;-62
2020/12/07 19:52:18;;;;;;;;;;;;;;;;;;4963472;28;19973;-62
2020/12/07 19:54:45;;;;;;;;;;;;;;;;;;4974102;28;20450;-61
2020/12/07 19:57:13;;;;;;;;;;;;;;;;;;4976048;28;20135;-61
2020/12/07 19:59:40;;;;;;;;;;;;;;;;;;4970867;28;19934;-61
2020/12/07 20:02:08;;;;;;;;;;;;;;;;;;4963010;28;19934;-61
2020/12/07 20:04:36;;;;;;;;;;;;;;;;;;4963716;28;20024;-61
2020/12/07 20:07:04;;;;;;;;;;;;;;;;;;4971319;28;20390;-61
2020/12/07 20:09:31;;;;;;;;;;;;;;;;;;4970957;28;20382;-61
2020/12/07 20:11:59;;;;;;;;;;;;;;;;;;4968998;28;20400;-61
2020/12/07 20:14:26;;;;;;;;;;;;;;;;;;4967634;28;19937;-61